< < Back
Terminal Aerodrome Forecast


Current Version              Previous Versions:   1  2  3  4  5  6  7  8  9  

Terminal Aerodrome Forecast

691
FTUS44 KBMX 282300
TAFANB
TAF
KANB 282334Z 2900/2924 VRB03KT P6SM SKC
     FM291500 15007KT P6SM SCT250
     FM291900 22010KT P6SM SCT100 BKN250=



Latest METAR

066
SAUS70 KWBC 291800 RRB
MTRANB
METAR KANB 291753Z AUTO 21011KT 10SM SCT120 14/00 A3020 RMK AO2 SLP231
T01440000 10144 21006 58027


USA.gov is the U.S. government's official web portal to all federal, state and local government web resources and services.